createdAt,value
2023-04-21T00:00:54.891Z,42.60
2023-04-21T00:03:23.851Z,38.07
2023-04-21T00:05:51.074Z,32.70
2023-04-21T00:08:18.586Z,42.93
2023-04-21T00:10:46.804Z,37.90
2023-04-21T00:13:14.287Z,39.07
2023-04-21T00:15:41.171Z,38.73
2023-04-21T00:18:08.205Z,38.63
2023-04-21T00:20:35.051Z,39.40
2023-04-21T00:23:01.863Z,45.10
2023-04-21T00:25:28.515Z,44.43
2023-04-21T00:27:55.339Z,40.60
2023-04-21T00:30:22.013Z,42.37
2023-04-21T00:32:48.673Z,41.17
2023-04-21T00:35:15.492Z,45.77
2023-04-21T00:37:42.225Z,42.10
2023-04-21T00:40:11.719Z,35.30
2023-04-21T00:42:40.086Z,43.07
2023-04-21T00:45:07.168Z,45.93
2023-04-21T00:47:33.917Z,43.70
2023-04-21T00:50:00.779Z,43.43
2023-04-21T00:52:28.381Z,48.90
2023-04-21T00:54:55.250Z,41.70
2023-04-21T00:57:22.014Z,42.70
2023-04-21T00:59:49.881Z,38.47
2023-04-21T01:02:18.129Z,40.63
2023-04-21T01:04:45.777Z,44.83
2023-04-21T01:07:12.829Z,41.20
2023-04-21T01:09:39.685Z,39.27
2023-04-21T01:12:10.603Z,46.53
2023-04-21T01:14:38.758Z,43.50
2023-04-21T01:17:06.117Z,42.87
2023-04-21T01:19:34.776Z,43.10
2023-04-21T01:22:06.445Z,40.70
2023-04-21T01:24:40.450Z,45.17
2023-04-21T01:27:19.244Z,43.13
2023-04-21T01:29:49.191Z,44.53
2023-04-21T01:32:18.474Z,44.33
2023-04-21T01:34:46.315Z,43.93
2023-04-21T01:37:15.796Z,38.70
2023-04-21T01:39:44.264Z,45.80
2023-04-21T01:42:12.010Z,47.60
2023-04-21T01:44:39.438Z,46.77
2023-04-21T01:47:06.927Z,42.60
2023-04-21T01:49:33.517Z,41.00
2023-04-21T01:52:00.193Z,41.63
2023-04-21T01:54:26.905Z,42.27
2023-04-21T01:56:53.733Z,43.57
2023-04-21T01:59:21.079Z,41.73
2023-04-21T02:01:47.967Z,43.67
2023-04-21T02:04:14.750Z,47.17
2023-04-21T02:06:41.551Z,45.30
2023-04-21T02:09:08.163Z,43.23
2023-04-21T02:11:35.035Z,52.63
2023-04-21T02:14:01.752Z,44.83
2023-04-21T02:16:28.538Z,43.07
2023-04-21T02:18:59.877Z,42.33
2023-04-21T02:21:27.775Z,45.03
2023-04-21T02:23:54.662Z,43.40
2023-04-21T02:26:21.363Z,43.07
2023-04-21T02:28:48.210Z,50.43
2023-04-21T02:31:16.216Z,41.90
2023-04-21T02:33:42.926Z,49.80
2023-04-21T02:36:11.439Z,48.47
2023-04-21T02:38:38.059Z,47.67
2023-04-21T02:41:04.710Z,46.87
2023-04-21T02:43:31.343Z,41.53
2023-04-21T02:45:58.564Z,47.30
2023-04-21T02:48:25.487Z,42.77
2023-04-21T02:50:53.450Z,45.00
2023-04-21T02:53:20.898Z,46.50
2023-04-21T02:55:47.589Z,54.83
2023-04-21T02:58:14.276Z,45.50
2023-04-21T03:00:41.733Z,46.23
2023-04-21T03:03:08.682Z,43.37
2023-04-21T03:05:35.825Z,49.10
2023-04-21T03:08:02.446Z,44.10
2023-04-21T03:10:29.025Z,46.73
2023-04-21T03:12:56.376Z,44.03
2023-04-21T03:15:26.212Z,42.90
2023-04-21T03:17:53.672Z,44.20
2023-04-21T03:20:23.568Z,48.20
2023-04-21T03:22:50.208Z,42.20
2023-04-21T03:25:16.802Z,46.10
2023-04-21T03:27:43.535Z,42.70
2023-04-21T03:30:12.699Z,43.47
2023-04-21T03:32:39.419Z,47.23
2023-04-21T03:35:06.283Z,41.03
2023-04-21T03:37:33.659Z,40.93
2023-04-21T03:40:01.109Z,42.63
2023-04-21T03:42:31.249Z,49.07
2023-04-21T03:45:04.789Z,39.77
2023-04-21T03:47:33.639Z,44.00
2023-04-21T03:50:03.208Z,42.90
2023-04-21T03:52:29.867Z,42.23
2023-04-21T03:54:56.461Z,41.30
2023-04-21T03:57:23.068Z,46.60
2023-04-21T03:59:49.700Z,44.60
2023-04-21T04:02:18.745Z,39.87
2023-04-21T04:04:45.628Z,43.77
2023-04-21T04:07:12.301Z,47.77
2023-04-21T04:09:38.912Z,41.47
2023-04-21T04:12:05.660Z,42.90
2023-04-21T04:14:32.296Z,41.33
2023-04-21T04:16:59.259Z,40.80
2023-04-21T04:19:31.576Z,42.93
2023-04-21T04:21:59.928Z,41.33
2023-04-21T04:24:26.823Z,42.33
2023-04-21T04:26:54.931Z,38.30
2023-04-21T04:29:22.722Z,41.13
2023-04-21T04:31:50.798Z,36.83
2023-04-21T04:34:17.883Z,40.70
2023-04-21T04:36:45.184Z,36.10
2023-04-21T04:39:12.431Z,29.43
2023-04-21T04:41:39.531Z,34.77
2023-04-21T04:44:06.269Z,35.90
2023-04-21T04:46:33.112Z,35.07
2023-04-21T04:49:03.118Z,30.83
2023-04-21T04:51:30.231Z,29.40
2023-04-21T04:53:56.848Z,29.87
2023-04-21T04:56:23.593Z,26.33
2023-04-21T04:58:50.244Z,27.60
2023-04-21T05:01:17.543Z,26.13
2023-04-21T05:03:45.518Z,25.33
2023-04-21T05:06:13.972Z,23.67
2023-04-21T05:08:41.513Z,28.37
2023-04-21T05:11:08.522Z,29.60
2023-04-21T05:13:36.051Z,22.83
2023-04-21T05:16:04.569Z,19.90
2023-04-21T05:18:33.407Z,22.90
2023-04-21T05:21:00.040Z,22.23
2023-04-21T05:23:26.858Z,23.70
2023-04-21T05:25:53.553Z,23.13
2023-04-21T05:28:20.263Z,24.33
2023-04-21T05:30:46.859Z,26.73
2023-04-21T05:33:13.502Z,21.93
2023-04-21T05:35:40.497Z,22.77
2023-04-21T05:38:07.246Z,22.70
2023-04-21T05:40:33.947Z,22.30
2023-04-21T05:43:00.584Z,20.40
2023-04-21T05:45:29.761Z,20.53
2023-04-21T05:47:56.453Z,20.10
2023-04-21T05:50:23.245Z,22.70
2023-04-21T05:52:49.910Z,21.57
2023-04-21T05:55:16.503Z,26.20
2023-04-21T05:57:43.158Z,22.70
2023-04-21T06:00:10.535Z,25.43
2023-04-21T06:02:38.880Z,20.63
2023-04-21T06:05:06.392Z,30.63
2023-04-21T06:07:33.182Z,22.07
2023-04-21T06:09:59.883Z,22.60
2023-04-21T06:12:26.574Z,20.90
2023-04-21T06:14:57.403Z,23.87
2023-04-21T06:17:24.356Z,21.73
2023-04-21T06:19:53.261Z,20.53
2023-04-21T06:22:20.962Z,22.10
2023-04-21T06:24:47.906Z,19.03
2023-04-21T06:27:15.031Z,20.07
2023-04-21T06:29:45.064Z,21.57
2023-04-21T06:32:12.646Z,23.97
2023-04-21T06:34:39.621Z,18.87
2023-04-21T06:37:06.277Z,20.73
2023-04-21T06:39:33.045Z,20.67
2023-04-21T06:41:59.766Z,18.57
2023-04-21T06:44:26.911Z,17.50
2023-04-21T06:46:53.721Z,19.60
2023-04-21T06:49:22.014Z,21.23
2023-04-21T06:51:53.416Z,21.70
2023-04-21T06:54:22.085Z,19.60
2023-04-21T06:56:51.306Z,22.73
2023-04-21T06:59:18.146Z,20.43
2023-04-21T07:01:44.990Z,23.83
2023-04-21T07:04:11.650Z,20.60
2023-04-21T07:06:38.268Z,22.00
2023-04-21T07:09:05.856Z,22.17
2023-04-21T07:11:34.777Z,21.17
2023-04-21T07:14:02.480Z,25.13
2023-04-21T07:16:30.168Z,21.70
2023-04-21T07:18:56.960Z,23.10
2023-04-21T07:21:23.645Z,24.90
2023-04-21T07:23:58.542Z,24.77
2023-04-21T07:26:25.255Z,22.13
2023-04-21T07:28:52.861Z,24.87
2023-04-21T07:31:26.320Z,24.80
2023-04-21T07:33:53.091Z,25.93
2023-04-21T07:36:19.856Z,22.80
2023-04-21T07:38:46.653Z,28.30
2023-04-21T07:41:14.131Z,24.00
2023-04-21T07:43:43.349Z,21.50
2023-04-21T07:46:10.000Z,19.97
2023-04-21T07:48:36.707Z,26.30
2023-04-21T07:51:03.593Z,20.17
2023-04-21T07:53:32.841Z,19.70
2023-04-21T07:55:59.564Z,28.97
2023-04-21T07:58:26.354Z,22.60
2023-04-21T08:00:53.078Z,21.80
2023-04-21T08:03:21.452Z,21.27
2023-04-21T08:05:49.876Z,21.03
2023-04-21T08:08:20.495Z,22.23
2023-04-21T08:10:47.289Z,18.17
2023-04-21T08:13:13.965Z,24.83
2023-04-21T08:15:40.712Z,21.23
2023-04-21T08:18:08.505Z,22.53
2023-04-21T08:20:37.587Z,23.53
2023-04-21T08:23:04.286Z,22.63
2023-04-21T08:25:31.347Z,18.60
2023-04-21T08:27:58.074Z,19.27
2023-04-21T08:30:27.138Z,24.60
2023-04-21T08:32:56.317Z,21.43
2023-04-21T08:35:22.991Z,25.90
2023-04-21T08:37:51.009Z,20.80
2023-04-21T08:40:22.676Z,19.40
2023-04-21T08:42:51.735Z,18.10
2023-04-21T08:45:18.645Z,18.33
2023-04-21T08:47:45.950Z,17.13
2023-04-21T08:50:14.585Z,17.83
2023-04-21T08:52:44.801Z,19.57
2023-04-21T08:55:14.163Z,20.73
2023-04-21T08:57:44.748Z,21.77
2023-04-21T09:00:14.194Z,18.63
2023-04-21T09:03:01.430Z,19.37
2023-04-21T09:05:33.965Z,17.40
2023-04-21T09:08:13.235Z,17.63
2023-04-21T09:10:46.909Z,24.30
2023-04-21T09:13:14.093Z,16.43
2023-04-21T09:15:41.718Z,21.50
2023-04-21T09:18:14.196Z,19.87
2023-04-21T09:20:44.104Z,21.03
2023-04-21T09:23:11.485Z,19.00
2023-04-21T09:25:40.157Z,19.33
2023-04-21T09:28:13.925Z,16.60
2023-04-21T09:30:42.731Z,15.40
2023-04-21T09:33:29.117Z,18.90
2023-04-21T09:36:01.315Z,21.30
2023-04-21T09:38:27.968Z,16.23
2023-04-21T09:40:58.878Z,16.43
2023-04-21T09:43:26.140Z,16.37
2023-04-21T09:45:53.962Z,23.53
2023-04-21T09:48:22.650Z,17.40
2023-04-21T09:53:21.956Z,17.17
2023-04-21T09:55:50.443Z,22.00
2023-04-21T09:58:20.758Z,18.60
2023-04-21T10:00:47.789Z,17.53
2023-04-21T10:03:17.521Z,18.43
2023-04-21T10:05:50.914Z,14.77
2023-04-21T10:08:17.837Z,12.80
2023-04-21T10:10:46.962Z,17.03
2023-04-21T10:13:22.720Z,13.83
2023-04-21T10:15:49.570Z,14.23
2023-04-21T10:18:21.804Z,11.50
2023-04-21T10:20:56.579Z,20.43
2023-04-21T10:23:35.893Z,12.33
2023-04-21T10:26:27.124Z,20.20
2023-04-21T10:29:02.923Z,11.63
2023-04-21T10:31:47.823Z,19.33
2023-04-21T10:34:15.111Z,18.97
2023-04-21T10:36:53.977Z,14.43
2023-04-21T10:39:33.585Z,23.10
2023-04-21T10:42:12.737Z,14.17
2023-04-21T10:44:43.097Z,18.37
2023-04-21T10:47:12.792Z,15.17
2023-04-21T10:49:40.429Z,12.53
2023-04-21T10:52:10.760Z,12.97
2023-04-21T10:54:45.921Z,16.23
2023-04-21T10:57:21.910Z,15.23
2023-04-21T10:59:51.916Z,13.33
2023-04-21T11:02:19.259Z,14.83
2023-04-21T11:04:51.384Z,9.73
2023-04-21T11:07:18.993Z,11.57
2023-04-21T11:09:47.815Z,8.53
2023-04-21T11:12:19.464Z,12.77
2023-04-21T11:14:50.811Z,10.10
2023-04-21T11:17:19.444Z,7.10
2023-04-21T11:19:47.130Z,11.33
2023-04-21T11:22:13.968Z,7.50
2023-04-21T11:24:45.528Z,8.57
2023-04-21T11:27:14.305Z,11.70
2023-04-21T11:29:41.843Z,8.60
2023-04-21T11:32:09.445Z,7.60
2023-04-21T11:34:42.239Z,7.40
2023-04-21T11:37:35.777Z,13.20
2023-04-21T11:40:07.047Z,9.73
2023-04-21T11:42:33.687Z,10.63
2023-04-21T11:45:01.070Z,15.50
2023-04-21T11:47:28.713Z,10.87
2023-04-21T11:49:57.156Z,15.53
2023-04-21T11:52:28.756Z,8.83
2023-04-21T11:55:08.310Z,9.17
2023-04-21T11:57:36.423Z,10.60
2023-04-21T12:00:06.652Z,9.37
2023-04-21T12:02:33.922Z,8.97
2023-04-21T12:05:04.031Z,7.63
2023-04-21T12:07:36.148Z,7.70
2023-04-21T12:10:12.911Z,7.80
2023-04-21T12:12:40.524Z,8.90
2023-04-21T12:15:08.575Z,7.83
2023-04-21T12:17:38.446Z,9.73
2023-04-21T12:20:07.052Z,9.90
2023-04-21T12:22:33.833Z,7.40
2023-04-21T12:25:00.560Z,6.40
2023-04-21T12:27:27.759Z,6.30
2023-04-21T12:29:54.554Z,7.00
2023-04-21T12:32:21.529Z,19.00
2023-04-21T12:34:48.275Z,8.77
2023-04-21T12:37:15.034Z,7.80
2023-04-21T12:39:44.478Z,8.10
2023-04-21T12:42:11.298Z,11.23
2023-04-21T12:44:38.740Z,10.87
2023-04-21T12:47:05.509Z,10.63
2023-04-21T12:49:32.460Z,11.87
2023-04-21T12:51:59.628Z,10.03
2023-04-21T12:54:26.335Z,10.80
2023-04-21T12:56:52.994Z,7.10
2023-04-21T12:59:27.064Z,7.60
2023-04-21T13:01:54.939Z,10.13
2023-04-21T13:04:22.022Z,10.00
2023-04-21T13:06:54.691Z,11.90
2023-04-21T13:09:21.368Z,9.10
2023-04-21T13:11:47.998Z,7.43
2023-04-21T13:14:15.872Z,6.60
2023-04-21T13:16:43.341Z,9.47
2023-04-21T13:19:12.427Z,13.80
2023-04-21T13:21:39.121Z,9.17
2023-04-21T13:24:06.027Z,6.87
2023-04-21T13:26:36.026Z,10.00
2023-04-21T13:29:03.983Z,6.60
2023-04-21T13:31:30.906Z,13.77
2023-04-21T13:33:59.580Z,10.63
2023-04-21T13:36:26.966Z,9.37
2023-04-21T13:38:56.629Z,6.70
2023-04-21T13:41:23.318Z,6.47
2023-04-21T13:43:50.191Z,12.20
2023-04-21T13:46:16.897Z,9.87
2023-04-21T13:48:45.255Z,6.83
2023-04-21T13:51:11.927Z,16.73
2023-04-21T13:53:38.590Z,12.27
2023-04-21T13:56:07.266Z,6.97
2023-04-21T13:58:36.273Z,7.57
2023-04-21T14:01:05.341Z,8.23
2023-04-21T14:03:37.276Z,15.10
2023-04-21T14:06:07.485Z,11.50
2023-04-21T14:08:37.286Z,9.90
2023-04-21T14:11:04.961Z,11.80
2023-04-21T14:13:41.881Z,8.80
2023-04-21T14:16:21.943Z,15.80
2023-04-21T14:18:48.719Z,11.93
2023-04-21T14:21:15.423Z,7.67
2023-04-21T14:23:42.299Z,11.00
2023-04-21T14:26:11.871Z,9.47
2023-04-21T14:28:38.617Z,9.93
2023-04-21T14:31:05.915Z,12.87
2023-04-21T14:33:33.374Z,15.47
2023-04-21T14:36:08.215Z,9.20
2023-04-21T14:38:35.806Z,9.13
2023-04-21T14:41:04.847Z,12.67
2023-04-21T14:43:34.706Z,7.50
2023-04-21T14:46:02.308Z,9.60
2023-04-21T14:48:29.681Z,7.27
2023-04-21T14:50:59.637Z,13.50
2023-04-21T14:53:36.272Z,8.47
2023-04-21T14:56:05.565Z,6.63
2023-04-21T14:58:32.386Z,8.27
2023-04-21T15:01:04.252Z,11.00
2023-04-21T15:03:31.639Z,7.50
2023-04-21T15:06:02.775Z,8.83
2023-04-21T15:08:29.651Z,8.10
2023-04-21T15:10:56.794Z,5.07
2023-04-21T15:13:23.657Z,7.00
2023-04-21T15:15:52.203Z,10.93
2023-04-21T15:18:19.193Z,7.13
2023-04-21T15:20:46.088Z,5.70
2023-04-21T15:23:13.070Z,11.70
2023-04-21T15:25:40.402Z,6.07
2023-04-21T15:28:10.038Z,9.17
2023-04-21T15:30:36.910Z,9.13
2023-04-21T15:33:03.881Z,7.57
2023-04-21T15:35:30.664Z,6.33
2023-04-21T15:37:59.693Z,16.10
2023-04-21T15:40:26.998Z,11.20
2023-04-21T15:42:53.729Z,6.40
2023-04-21T15:45:21.571Z,8.00
2023-04-21T15:47:48.325Z,11.70
2023-04-21T15:50:15.067Z,6.90
2023-04-21T15:52:43.413Z,8.43
2023-04-21T15:55:13.901Z,10.30
2023-04-21T15:57:40.696Z,10.40
2023-04-21T16:00:10.275Z,8.10
2023-04-21T16:02:37.470Z,7.67
2023-04-21T16:05:04.756Z,14.27
2023-04-21T16:07:31.965Z,8.30
2023-04-21T16:10:00.403Z,6.20
2023-04-21T16:12:27.441Z,5.97
2023-04-21T16:14:59.562Z,8.33
2023-04-21T16:17:37.246Z,8.83
2023-04-21T16:20:05.752Z,18.00
2023-04-21T16:22:32.545Z,11.77
2023-04-21T16:25:10.821Z,6.93
2023-04-21T16:27:46.287Z,7.17
2023-04-21T16:30:15.690Z,9.53
2023-04-21T16:32:42.448Z,5.23
2023-04-21T16:35:10.031Z,8.20
2023-04-21T16:37:38.301Z,9.70
2023-04-21T16:40:08.641Z,7.93
2023-04-21T16:42:36.204Z,8.10
2023-04-21T16:45:04.670Z,6.20
2023-04-21T16:47:40.404Z,9.03
2023-04-21T16:50:08.886Z,6.63
2023-04-21T16:52:35.551Z,7.77
2023-04-21T16:55:02.192Z,11.70
2023-04-21T16:57:29.767Z,12.17
2023-04-21T16:59:59.309Z,6.10
2023-04-21T17:02:26.079Z,8.03
2023-04-21T17:04:52.859Z,5.43
2023-04-21T17:07:19.537Z,13.40
2023-04-21T17:09:46.413Z,7.27
2023-04-21T17:12:13.049Z,10.60
2023-04-21T17:14:40.606Z,7.07
2023-04-21T17:17:07.462Z,11.30
2023-04-21T17:19:34.306Z,8.47
2023-04-21T17:22:01.165Z,6.10
2023-04-21T17:24:33.052Z,7.60
2023-04-21T17:27:05.042Z,10.97
2023-04-21T17:29:31.949Z,13.43
2023-04-21T17:32:00.204Z,13.63
2023-04-21T17:34:26.973Z,9.80
2023-04-21T17:36:53.756Z,8.00
2023-04-21T17:39:20.407Z,10.73
2023-04-21T17:41:47.945Z,8.00
2023-04-21T17:44:14.536Z,12.10
2023-04-21T17:46:41.772Z,9.30
2023-04-21T17:49:10.838Z,19.10
2023-04-21T17:51:37.565Z,9.93
2023-04-21T17:54:05.236Z,10.43
2023-04-21T17:56:31.878Z,10.13
2023-04-21T17:58:58.582Z,13.20
2023-04-21T18:01:25.632Z,12.07
2023-04-21T18:03:56.506Z,9.70
2023-04-21T18:06:25.630Z,10.57
2023-04-21T18:08:52.243Z,8.33
2023-04-21T18:11:18.991Z,9.03
2023-04-21T18:13:45.581Z,11.67
2023-04-21T18:16:12.292Z,12.83
2023-04-21T18:18:39.318Z,7.53
2023-04-21T18:21:06.077Z,7.10
2023-04-21T18:23:32.728Z,10.33
2023-04-21T18:26:04.888Z,9.57
2023-04-21T18:28:32.034Z,8.17
2023-04-21T18:30:58.756Z,11.63
2023-04-21T18:33:25.548Z,7.57
2023-04-21T18:35:52.442Z,9.80
2023-04-21T18:38:19.058Z,8.80
2023-04-21T18:40:47.995Z,10.90
2023-04-21T18:43:14.878Z,10.23
2023-04-21T18:45:41.692Z,7.13
2023-04-21T18:48:08.631Z,9.20
2023-04-21T18:50:40.842Z,12.60
2023-04-21T18:53:08.574Z,18.00
2023-04-21T18:55:36.320Z,7.90
2023-04-21T18:58:03.214Z,12.43
2023-04-21T19:00:32.011Z,8.07
2023-04-21T19:03:02.177Z,12.77
2023-04-21T19:05:31.114Z,6.90
2023-04-21T19:07:58.275Z,12.30
2023-04-21T19:10:25.053Z,10.40
2023-04-21T19:12:51.766Z,6.80
2023-04-21T19:15:18.608Z,11.90
2023-04-21T19:17:45.432Z,7.07
2023-04-21T19:20:12.624Z,8.30
2023-04-21T19:22:39.405Z,11.93
2023-04-21T19:25:07.151Z,13.13
2023-04-21T19:27:34.134Z,8.97
2023-04-21T19:30:01.053Z,8.10
2023-04-21T19:32:28.030Z,10.30
2023-04-21T19:34:54.960Z,8.70
2023-04-21T19:37:21.810Z,7.93
2023-04-21T19:39:48.486Z,9.63
2023-04-21T19:42:15.083Z,12.43
2023-04-21T19:44:41.785Z,10.90
2023-04-21T19:47:08.491Z,6.77
2023-04-21T19:49:35.591Z,9.60
2023-04-21T19:52:02.320Z,8.17
2023-04-21T19:54:28.988Z,11.33
2023-04-21T19:56:55.696Z,15.27
2023-04-21T19:59:22.350Z,11.63
2023-04-21T20:01:48.993Z,7.90
2023-04-21T20:04:16.513Z,9.20
2023-04-21T20:06:43.921Z,10.20
2023-04-21T20:09:11.028Z,7.70
2023-04-21T20:11:40.332Z,12.70
2023-04-21T20:14:07.034Z,13.70
2023-04-21T20:16:34.398Z,10.67
2023-04-21T20:19:01.171Z,8.67
2023-04-21T20:21:27.958Z,8.67
2023-04-21T20:23:54.652Z,10.33
2023-04-21T20:26:21.435Z,8.70
2023-04-21T20:28:48.115Z,8.50
2023-04-21T20:31:15.223Z,10.27
2023-04-21T20:33:41.913Z,7.03
2023-04-21T20:36:08.630Z,13.30
2023-04-21T20:38:35.701Z,8.03
2023-04-21T20:41:03.336Z,11.43
2023-04-21T20:43:33.203Z,8.90
2023-04-21T20:46:03.491Z,12.03
2023-04-21T20:48:30.543Z,12.37
2023-04-21T20:50:57.290Z,8.10
2023-04-21T20:53:24.337Z,9.57
2023-04-21T20:55:51.227Z,8.30
2023-04-21T20:58:18.006Z,14.37
2023-04-21T21:00:44.799Z,10.37
2023-04-21T21:03:13.737Z,10.00
2023-04-21T21:05:40.895Z,8.50
2023-04-21T21:08:07.863Z,10.10
2023-04-21T21:10:35.357Z,11.80
2023-04-21T21:13:02.077Z,8.63
2023-04-21T21:15:30.482Z,10.07
2023-04-21T21:17:57.564Z,14.60
2023-04-21T21:20:24.425Z,8.53
2023-04-21T21:22:51.115Z,14.97
2023-04-21T21:25:17.831Z,12.53
2023-04-21T21:27:44.523Z,8.90
2023-04-21T21:30:11.418Z,10.30
2023-04-21T21:32:38.211Z,13.33
2023-04-21T21:35:06.909Z,11.40
2023-04-21T21:37:33.658Z,9.60
2023-04-21T21:40:00.439Z,9.90
2023-04-21T21:42:27.059Z,8.60
2023-04-21T21:44:53.857Z,10.70
2023-04-21T21:47:20.844Z,8.03
2023-04-21T21:49:47.559Z,10.33
2023-04-21T21:52:15.091Z,11.33
2023-04-21T21:54:41.684Z,12.37
2023-04-21T21:57:08.636Z,8.63
2023-04-21T21:59:35.546Z,7.47
2023-04-21T22:02:02.345Z,8.33
2023-04-21T22:04:29.088Z,8.40
2023-04-21T22:06:55.805Z,8.30
2023-04-21T22:09:22.489Z,11.87
2023-04-21T22:11:49.173Z,12.47
2023-04-21T22:14:23.486Z,10.47
2023-04-21T22:16:53.040Z,12.17
2023-04-21T22:19:20.414Z,10.17
2023-04-21T22:21:47.476Z,11.00
2023-04-21T22:24:14.704Z,7.73
2023-04-21T22:26:41.970Z,7.90
2023-04-21T22:29:08.607Z,10.07
2023-04-21T22:31:35.475Z,7.43
2023-04-21T22:34:02.245Z,9.50
2023-04-21T22:36:28.880Z,9.03
2023-04-21T22:38:55.575Z,7.17
2023-04-21T22:41:22.684Z,8.73
2023-04-21T22:43:49.427Z,9.77
2023-04-21T22:46:16.140Z,10.10
2023-04-21T22:48:46.389Z,7.80
2023-04-21T22:51:14.386Z,8.20
2023-04-21T22:53:41.131Z,7.93
2023-04-21T22:56:07.911Z,12.10
2023-04-21T22:58:34.463Z,9.63
2023-04-21T23:01:01.877Z,14.83
2023-04-21T23:03:28.732Z,7.83
2023-04-21T23:05:55.708Z,8.83
2023-04-21T23:08:22.388Z,8.40
2023-04-21T23:10:49.036Z,8.30
2023-04-21T23:13:15.678Z,8.30
2023-04-21T23:15:42.334Z,12.60
2023-04-21T23:18:09.031Z,6.63
2023-04-21T23:20:35.858Z,8.20
2023-04-21T23:23:02.528Z,9.07
2023-04-21T23:25:29.210Z,9.90
2023-04-21T23:27:55.773Z,14.50
2023-04-21T23:30:22.399Z,7.30
2023-04-21T23:32:49.119Z,12.80
2023-04-21T23:35:15.938Z,19.27
2023-04-21T23:37:42.690Z,17.57
2023-04-21T23:40:12.557Z,7.87
2023-04-21T23:42:39.530Z,11.90
2023-04-21T23:45:06.880Z,14.70
2023-04-21T23:47:33.877Z,10.40
2023-04-21T23:50:00.651Z,15.17
2023-04-21T23:52:27.377Z,11.83
2023-04-21T23:54:54.079Z,8.17
2023-04-21T23:57:20.935Z,16.00
2023-04-21T23:59:47.836Z,16.27
